sensor_id;sensor_type;location;lat;lon;timestamp;temperature;humidity
18083;DHT22;9168;51.194;6.840;2023-08-06T00:00:55;16.00;99.90
18083;DHT22;9168;51.194;6.840;2023-08-06T00:03:22;16.00;99.90
18083;DHT22;9168;51.194;6.840;2023-08-06T00:05:49;16.00;99.90
18083;DHT22;9168;51.194;6.840;2023-08-06T00:08:17;16.00;99.90
18083;DHT22;9168;51.194;6.840;2023-08-06T00:10:44;15.90;99.90
18083;DHT22;9168;51.194;6.840;2023-08-06T00:13:11;16.00;99.90
18083;DHT22;9168;51.194;6.840;2023-08-06T00:15:38;15.90;99.90
18083;DHT22;9168;51.194;6.840;2023-08-06T00:18:05;15.90;99.90
18083;DHT22;9168;51.194;6.840;2023-08-06T00:20:32;15.90;99.90
18083;DHT22;9168;51.194;6.840;2023-08-06T00:22:58;15.90;99.90
18083;DHT22;9168;51.194;6.840;2023-08-06T00:25:27;15.80;99.90
18083;DHT22;9168;51.194;6.840;2023-08-06T00:27:54;15.80;99.90
18083;DHT22;9168;51.194;6.840;2023-08-06T00:30:22;15.80;99.90
18083;DHT22;9168;51.194;6.840;2023-08-06T00:32:48;15.70;99.90
18083;DHT22;9168;51.194;6.840;2023-08-06T00:35:15;15.70;99.90
18083;DHT22;9168;51.194;6.840;2023-08-06T00:37:42;15.70;99.90
18083;DHT22;9168;51.194;6.840;2023-08-06T00:40:09;15.60;99.90
18083;DHT22;9168;51.194;6.840;2023-08-06T00:42:37;15.60;99.90
18083;DHT22;9168;51.194;6.840;2023-08-06T00:45:05;15.60;99.90
18083;DHT22;9168;51.194;6.840;2023-08-06T00:47:32;15.60;99.90
18083;DHT22;9168;51.194;6.840;2023-08-06T00:49:59;15.60;99.90
18083;DHT22;9168;51.194;6.840;2023-08-06T00:52:26;15.60;99.90
18083;DHT22;9168;51.194;6.840;2023-08-06T00:54:53;15.60;99.90
18083;DHT22;9168;51.194;6.840;2023-08-06T00:57:22;15.70;99.90
18083;DHT22;9168;51.194;6.840;2023-08-06T00:59:52;15.70;99.90
18083;DHT22;9168;51.194;6.840;2023-08-06T01:02:20;15.70;99.90
18083;DHT22;9168;51.194;6.840;2023-08-06T01:04:47;15.70;99.90
18083;DHT22;9168;51.194;6.840;2023-08-06T01:07:21;15.70;99.90
18083;DHT22;9168;51.194;6.840;2023-08-06T01:10:00;15.80;99.90
18083;DHT22;9168;51.194;6.840;2023-08-06T01:12:38;15.80;99.90
18083;DHT22;9168;51.194;6.840;2023-08-06T01:15:15;15.80;99.90
18083;DHT22;9168;51.194;6.840;2023-08-06T01:17:45;15.90;99.90
18083;DHT22;9168;51.194;6.840;2023-08-06T01:20:12;15.90;99.90
18083;DHT22;9168;51.194;6.840;2023-08-06T01:22:40;15.90;99.90
18083;DHT22;9168;51.194;6.840;2023-08-06T01:25:07;15.90;99.90
18083;DHT22;9168;51.194;6.840;2023-08-06T01:27:38;16.00;99.90
18083;DHT22;9168;51.194;6.840;2023-08-06T01:30:12;15.90;99.90
18083;DHT22;9168;51.194;6.840;2023-08-06T01:32:44;15.90;99.90
18083;DHT22;9168;51.194;6.840;2023-08-06T01:35:13;16.00;99.90
18083;DHT22;9168;51.194;6.840;2023-08-06T01:37:43;16.00;99.90
18083;DHT22;9168;51.194;6.840;2023-08-06T01:40:11;16.00;99.90
18083;DHT22;9168;51.194;6.840;2023-08-06T01:42:38;16.00;99.90
18083;DHT22;9168;51.194;6.840;2023-08-06T01:45:06;16.00;99.90
18083;DHT22;9168;51.194;6.840;2023-08-06T01:47:33;16.00;99.90
18083;DHT22;9168;51.194;6.840;2023-08-06T01:50:00;16.00;99.90
18083;DHT22;9168;51.194;6.840;2023-08-06T01:52:28;15.90;99.90
18083;DHT22;9168;51.194;6.840;2023-08-06T01:54:56;16.00;99.90
18083;DHT22;9168;51.194;6.840;2023-08-06T01:57:23;16.00;99.90
18083;DHT22;9168;51.194;6.840;2023-08-06T01:59:50;15.90;99.90
18083;DHT22;9168;51.194;6.840;2023-08-06T02:02:17;15.90;99.90
18083;DHT22;9168;51.194;6.840;2023-08-06T02:04:44;15.90;99.90
18083;DHT22;9168;51.194;6.840;2023-08-06T02:07:10;15.90;99.90
18083;DHT22;9168;51.194;6.840;2023-08-06T02:09:37;15.80;99.90
18083;DHT22;9168;51.194;6.840;2023-08-06T02:12:07;15.90;99.90
18083;DHT22;9168;51.194;6.840;2023-08-06T02:14:34;15.90;99.90
18083;DHT22;9168;51.194;6.840;2023-08-06T02:17:01;15.90;99.90
18083;DHT22;9168;51.194;6.840;2023-08-06T02:19:28;15.90;99.90
18083;DHT22;9168;51.194;6.840;2023-08-06T02:21:55;15.90;99.90
18083;DHT22;9168;51.194;6.840;2023-08-06T02:24:22;15.90;99.90
18083;DHT22;9168;51.194;6.840;2023-08-06T02:26:49;15.90;99.90
18083;DHT22;9168;51.194;6.840;2023-08-06T02:29:18;15.90;99.90
18083;DHT22;9168;51.194;6.840;2023-08-06T02:31:45;15.90;99.90
18083;DHT22;9168;51.194;6.840;2023-08-06T02:34:11;15.90;99.90
18083;DHT22;9168;51.194;6.840;2023-08-06T02:36:38;15.90;99.90
18083;DHT22;9168;51.194;6.840;2023-08-06T02:39:05;15.90;99.90
18083;DHT22;9168;51.194;6.840;2023-08-06T02:41:32;15.90;99.90
18083;DHT22;9168;51.194;6.840;2023-08-06T02:43:59;15.90;99.90
18083;DHT22;9168;51.194;6.840;2023-08-06T02:46:27;15.90;99.90
18083;DHT22;9168;51.194;6.840;2023-08-06T02:48:54;16.00;99.90
18083;DHT22;9168;51.194;6.840;2023-08-06T02:51:21;15.90;99.90
18083;DHT22;9168;51.194;6.840;2023-08-06T02:53:48;16.00;99.90
18083;DHT22;9168;51.194;6.840;2023-08-06T02:56:15;15.90;99.90
18083;DHT22;9168;51.194;6.840;2023-08-06T02:58:42;15.90;99.90
18083;DHT22;9168;51.194;6.840;2023-08-06T03:01:09;15.90;99.90
18083;DHT22;9168;51.194;6.840;2023-08-06T03:03:37;16.00;99.90
18083;DHT22;9168;51.194;6.840;2023-08-06T03:06:04;16.00;99.90
18083;DHT22;9168;51.194;6.840;2023-08-06T03:08:31;15.90;99.90
18083;DHT22;9168;51.194;6.840;2023-08-06T03:10:57;15.90;99.90
18083;DHT22;9168;51.194;6.840;2023-08-06T03:13:24;15.90;99.90
18083;DHT22;9168;51.194;6.840;2023-08-06T03:15:52;15.90;99.90
18083;DHT22;9168;51.194;6.840;2023-08-06T03:18:19;15.90;99.90
18083;DHT22;9168;51.194;6.840;2023-08-06T03:20:48;15.80;99.90
18083;DHT22;9168;51.194;6.840;2023-08-06T03:23:15;15.80;99.90
18083;DHT22;9168;51.194;6.840;2023-08-06T03:25:42;15.80;99.90
18083;DHT22;9168;51.194;6.840;2023-08-06T03:28:09;15.70;99.90
18083;DHT22;9168;51.194;6.840;2023-08-06T03:30:36;15.70;99.90
18083;DHT22;9168;51.194;6.840;2023-08-06T03:33:03;15.70;99.90
18083;DHT22;9168;51.194;6.840;2023-08-06T03:35:29;15.70;99.90
18083;DHT22;9168;51.194;6.840;2023-08-06T03:37:58;15.70;99.90
18083;DHT22;9168;51.194;6.840;2023-08-06T03:40:25;15.60;99.90
18083;DHT22;9168;51.194;6.840;2023-08-06T03:42:51;15.60;99.90
18083;DHT22;9168;51.194;6.840;2023-08-06T03:45:18;15.60;99.90
18083;DHT22;9168;51.194;6.840;2023-08-06T03:47:45;15.60;99.90
18083;DHT22;9168;51.194;6.840;2023-08-06T03:50:12;15.60;99.90
18083;DHT22;9168;51.194;6.840;2023-08-06T03:52:39;15.60;99.90
18083;DHT22;9168;51.194;6.840;2023-08-06T03:55:08;15.60;99.90
18083;DHT22;9168;51.194;6.840;2023-08-06T03:57:34;15.60;99.90
18083;DHT22;9168;51.194;6.840;2023-08-06T04:00:02;15.60;99.90
18083;DHT22;9168;51.194;6.840;2023-08-06T04:02:29;15.60;99.90
18083;DHT22;9168;51.194;6.840;2023-08-06T04:04:56;15.60;99.90
18083;DHT22;9168;51.194;6.840;2023-08-06T04:07:24;15.60;99.90
18083;DHT22;9168;51.194;6.840;2023-08-06T04:09:53;15.60;99.90
18083;DHT22;9168;51.194;6.840;2023-08-06T04:12:21;15.70;99.90
18083;DHT22;9168;51.194;6.840;2023-08-06T04:14:48;15.70;99.90
18083;DHT22;9168;51.194;6.840;2023-08-06T04:17:15;15.60;99.90
18083;DHT22;9168;51.194;6.840;2023-08-06T04:19:42;15.70;99.90
18083;DHT22;9168;51.194;6.840;2023-08-06T04:22:09;15.70;99.90
18083;DHT22;9168;51.194;6.840;2023-08-06T04:24:35;15.70;99.90
18083;DHT22;9168;51.194;6.840;2023-08-06T04:27:03;15.70;99.90
18083;DHT22;9168;51.194;6.840;2023-08-06T04:29:31;15.70;99.90
18083;DHT22;9168;51.194;6.840;2023-08-06T04:31:58;15.70;99.90
18083;DHT22;9168;51.194;6.840;2023-08-06T04:34:25;15.80;99.90
18083;DHT22;9168;51.194;6.840;2023-08-06T04:36:52;15.70;99.90
18083;DHT22;9168;51.194;6.840;2023-08-06T04:39:19;15.70;99.90
18083;DHT22;9168;51.194;6.840;2023-08-06T04:41:46;15.70;99.90
18083;DHT22;9168;51.194;6.840;2023-08-06T04:44:12;15.70;99.90
18083;DHT22;9168;51.194;6.840;2023-08-06T04:46:41;15.70;99.90
18083;DHT22;9168;51.194;6.840;2023-08-06T04:49:07;15.80;99.90
18083;DHT22;9168;51.194;6.840;2023-08-06T04:51:34;15.70;99.90
18083;DHT22;9168;51.194;6.840;2023-08-06T04:54:01;15.80;99.90
18083;DHT22;9168;51.194;6.840;2023-08-06T04:56:28;15.90;99.90
18083;DHT22;9168;51.194;6.840;2023-08-06T04:58:56;15.90;99.90
18083;DHT22;9168;51.194;6.840;2023-08-06T05:01:23;15.90;99.90
18083;DHT22;9168;51.194;6.840;2023-08-06T05:03:51;15.90;99.90
18083;DHT22;9168;51.194;6.840;2023-08-06T05:06:18;15.90;99.90
18083;DHT22;9168;51.194;6.840;2023-08-06T05:08:45;15.90;99.90
18083;DHT22;9168;51.194;6.840;2023-08-06T05:11:12;15.90;99.90
18083;DHT22;9168;51.194;6.840;2023-08-06T05:13:39;15.90;99.90
18083;DHT22;9168;51.194;6.840;2023-08-06T05:16:06;15.90;99.90
18083;DHT22;9168;51.194;6.840;2023-08-06T05:18:33;15.90;99.90
18083;DHT22;9168;51.194;6.840;2023-08-06T05:21:01;15.90;99.90
18083;DHT22;9168;51.194;6.840;2023-08-06T05:23:28;16.00;99.90
18083;DHT22;9168;51.194;6.840;2023-08-06T05:25:55;15.90;99.90
18083;DHT22;9168;51.194;6.840;2023-08-06T05:28:22;15.90;99.90
18083;DHT22;9168;51.194;6.840;2023-08-06T05:30:49;15.90;99.90
18083;DHT22;9168;51.194;6.840;2023-08-06T05:33:15;16.00;99.90
18083;DHT22;9168;51.194;6.840;2023-08-06T05:35:42;15.90;99.90
18083;DHT22;9168;51.194;6.840;2023-08-06T05:38:11;15.90;99.90
18083;DHT22;9168;51.194;6.840;2023-08-06T05:40:38;15.90;99.90
18083;DHT22;9168;51.194;6.840;2023-08-06T05:43:04;15.90;99.90
18083;DHT22;9168;51.194;6.840;2023-08-06T05:45:31;16.00;99.90
18083;DHT22;9168;51.194;6.840;2023-08-06T05:47:58;16.00;99.90
18083;DHT22;9168;51.194;6.840;2023-08-06T05:50:25;16.00;99.90
18083;DHT22;9168;51.194;6.840;2023-08-06T05:52:52;15.90;99.90
18083;DHT22;9168;51.194;6.840;2023-08-06T05:55:20;16.00;99.90
18083;DHT22;9168;51.194;6.840;2023-08-06T05:57:47;16.10;99.90
18083;DHT22;9168;51.194;6.840;2023-08-06T06:00:14;16.10;99.90
18083;DHT22;9168;51.194;6.840;2023-08-06T06:02:41;16.10;99.90
18083;DHT22;9168;51.194;6.840;2023-08-06T06:05:08;16.20;99.90
18083;DHT22;9168;51.194;6.840;2023-08-06T06:07:35;16.30;99.90
18083;DHT22;9168;51.194;6.840;2023-08-06T06:10:02;16.30;99.90
18083;DHT22;9168;51.194;6.840;2023-08-06T06:12:31;16.30;99.90
18083;DHT22;9168;51.194;6.840;2023-08-06T06:14:57;16.40;99.90
18083;DHT22;9168;51.194;6.840;2023-08-06T06:17:26;16.40;99.90
18083;DHT22;9168;51.194;6.840;2023-08-06T06:19:53;16.50;99.90
18083;DHT22;9168;51.194;6.840;2023-08-06T06:22:20;16.40;99.90
18083;DHT22;9168;51.194;6.840;2023-08-06T06:24:47;16.50;99.90
18083;DHT22;9168;51.194;6.840;2023-08-06T06:27:13;16.50;99.90
18083;DHT22;9168;51.194;6.840;2023-08-06T06:29:42;16.50;99.90
18083;DHT22;9168;51.194;6.840;2023-08-06T06:32:08;16.60;99.90
18083;DHT22;9168;51.194;6.840;2023-08-06T06:34:35;16.60;99.90
18083;DHT22;9168;51.194;6.840;2023-08-06T06:37:03;16.60;99.90
18083;DHT22;9168;51.194;6.840;2023-08-06T06:39:30;16.60;99.90
18083;DHT22;9168;51.194;6.840;2023-08-06T06:41:56;16.70;99.90
18083;DHT22;9168;51.194;6.840;2023-08-06T06:44:23;16.70;99.90
18083;DHT22;9168;51.194;6.840;2023-08-06T06:46:52;16.70;99.90
18083;DHT22;9168;51.194;6.840;2023-08-06T06:49:18;16.80;99.90
18083;DHT22;9168;51.194;6.840;2023-08-06T06:51:45;16.90;99.90
18083;DHT22;9168;51.194;6.840;2023-08-06T06:54:12;16.80;99.90
18083;DHT22;9168;51.194;6.840;2023-08-06T06:56:39;16.80;99.90
18083;DHT22;9168;51.194;6.840;2023-08-06T06:59:06;16.80;99.90
18083;DHT22;9168;51.194;6.840;2023-08-06T07:01:34;16.80;99.90
18083;DHT22;9168;51.194;6.840;2023-08-06T07:04:02;16.70;99.90
18083;DHT22;9168;51.194;6.840;2023-08-06T07:06:30;16.70;99.90
18083;DHT22;9168;51.194;6.840;2023-08-06T07:08:57;16.80;99.90
18083;DHT22;9168;51.194;6.840;2023-08-06T07:11:24;16.70;99.90
18083;DHT22;9168;51.194;6.840;2023-08-06T07:13:56;16.80;99.90
18083;DHT22;9168;51.194;6.840;2023-08-06T07:16:24;16.80;99.90
18083;DHT22;9168;51.194;6.840;2023-08-06T07:18:52;16.80;99.90
18083;DHT22;9168;51.194;6.840;2023-08-06T07:21:21;16.90;99.90
18083;DHT22;9168;51.194;6.840;2023-08-06T07:23:48;16.90;99.90
18083;DHT22;9168;51.194;6.840;2023-08-06T07:26:16;16.90;99.90
18083;DHT22;9168;51.194;6.840;2023-08-06T07:28:43;17.00;99.90
18083;DHT22;9168;51.194;6.840;2023-08-06T07:31:10;17.00;99.90
18083;DHT22;9168;51.194;6.840;2023-08-06T07:33:37;17.10;99.90
18083;DHT22;9168;51.194;6.840;2023-08-06T07:36:12;17.20;99.90
18083;DHT22;9168;51.194;6.840;2023-08-06T07:38:41;17.20;99.90
18083;DHT22;9168;51.194;6.840;2023-08-06T07:41:08;17.30;99.90
18083;DHT22;9168;51.194;6.840;2023-08-06T07:43:35;17.30;99.90
18083;DHT22;9168;51.194;6.840;2023-08-06T07:46:02;17.40;99.90
18083;DHT22;9168;51.194;6.840;2023-08-06T07:48:30;17.40;99.90
18083;DHT22;9168;51.194;6.840;2023-08-06T07:50:57;17.40;99.90
18083;DHT22;9168;51.194;6.840;2023-08-06T07:53:25;17.40;99.90
18083;DHT22;9168;51.194;6.840;2023-08-06T07:55:56;17.40;99.90
18083;DHT22;9168;51.194;6.840;2023-08-06T07:58:24;17.40;99.90
18083;DHT22;9168;51.194;6.840;2023-08-06T08:00:51;17.40;99.90
18083;DHT22;9168;51.194;6.840;2023-08-06T08:03:19;17.50;99.90
18083;DHT22;9168;51.194;6.840;2023-08-06T08:05:46;17.50;99.90
18083;DHT22;9168;51.194;6.840;2023-08-06T08:08:13;17.60;99.90
18083;DHT22;9168;51.194;6.840;2023-08-06T08:10:43;17.60;99.90
18083;DHT22;9168;51.194;6.840;2023-08-06T08:13:12;17.70;99.90
18083;DHT22;9168;51.194;6.840;2023-08-06T08:15:39;17.70;99.90
18083;DHT22;9168;51.194;6.840;2023-08-06T08:18:06;17.80;99.90
18083;DHT22;9168;51.194;6.840;2023-08-06T08:20:33;17.80;99.90
18083;DHT22;9168;51.194;6.840;2023-08-06T08:23:01;17.80;99.90
18083;DHT22;9168;51.194;6.840;2023-08-06T08:25:28;17.90;99.90
18083;DHT22;9168;51.194;6.840;2023-08-06T08:27:57;18.00;99.90
18083;DHT22;9168;51.194;6.840;2023-08-06T08:30:25;18.10;99.90
18083;DHT22;9168;51.194;6.840;2023-08-06T08:32:52;18.10;99.90
18083;DHT22;9168;51.194;6.840;2023-08-06T08:35:19;18.10;99.90
18083;DHT22;9168;51.194;6.840;2023-08-06T08:37:46;18.10;99.90
18083;DHT22;9168;51.194;6.840;2023-08-06T08:40:14;18.00;99.90
18083;DHT22;9168;51.194;6.840;2023-08-06T08:42:42;17.90;99.90
18083;DHT22;9168;51.194;6.840;2023-08-06T08:45:12;17.90;99.90
18083;DHT22;9168;51.194;6.840;2023-08-06T08:47:42;17.90;99.90
18083;DHT22;9168;51.194;6.840;2023-08-06T08:50:10;18.00;99.90
18083;DHT22;9168;51.194;6.840;2023-08-06T08:52:39;18.00;99.90
18083;DHT22;9168;51.194;6.840;2023-08-06T08:55:07;18.00;99.90
18083;DHT22;9168;51.194;6.840;2023-08-06T08:57:34;18.10;99.90
18083;DHT22;9168;51.194;6.840;2023-08-06T09:00:02;18.20;99.90
18083;DHT22;9168;51.194;6.840;2023-08-06T09:02:29;18.20;99.90
18083;DHT22;9168;51.194;6.840;2023-08-06T09:05:00;18.30;99.90
18083;DHT22;9168;51.194;6.840;2023-08-06T09:07:31;18.40;99.90
18083;DHT22;9168;51.194;6.840;2023-08-06T09:10:02;18.50;99.90
18083;DHT22;9168;51.194;6.840;2023-08-06T09:12:30;18.50;99.90
18083;DHT22;9168;51.194;6.840;2023-08-06T09:14:57;18.70;99.90
18083;DHT22;9168;51.194;6.840;2023-08-06T09:17:24;18.80;99.90
18083;DHT22;9168;51.194;6.840;2023-08-06T09:19:51;18.80;99.90
18083;DHT22;9168;51.194;6.840;2023-08-06T09:22:19;18.80;99.90
18083;DHT22;9168;51.194;6.840;2023-08-06T09:24:46;18.70;99.90
18083;DHT22;9168;51.194;6.840;2023-08-06T09:27:14;18.70;99.90
18083;DHT22;9168;51.194;6.840;2023-08-06T09:29:42;18.70;99.90
18083;DHT22;9168;51.194;6.840;2023-08-06T09:32:10;18.80;99.90
18083;DHT22;9168;51.194;6.840;2023-08-06T09:34:39;19.00;99.90
18083;DHT22;9168;51.194;6.840;2023-08-06T09:37:07;19.10;99.90
18083;DHT22;9168;51.194;6.840;2023-08-06T09:39:37;19.20;99.90
18083;DHT22;9168;51.194;6.840;2023-08-06T09:42:04;19.20;99.90
18083;DHT22;9168;51.194;6.840;2023-08-06T09:44:33;19.20;99.90
18083;DHT22;9168;51.194;6.840;2023-08-06T09:47:01;19.10;99.90
18083;DHT22;9168;51.194;6.840;2023-08-06T09:49:39;19.00;99.90
18083;DHT22;9168;51.194;6.840;2023-08-06T09:52:07;18.80;99.90
18083;DHT22;9168;51.194;6.840;2023-08-06T09:54:38;18.60;99.90
18083;DHT22;9168;51.194;6.840;2023-08-06T09:57:05;18.40;99.90
18083;DHT22;9168;51.194;6.840;2023-08-06T09:59:32;18.30;99.90
18083;DHT22;9168;51.194;6.840;2023-08-06T10:01:59;18.00;99.90
18083;DHT22;9168;51.194;6.840;2023-08-06T10:04:26;17.90;99.90
18083;DHT22;9168;51.194;6.840;2023-08-06T10:06:56;17.80;99.90
18083;DHT22;9168;51.194;6.840;2023-08-06T10:09:24;17.70;99.90
18083;DHT22;9168;51.194;6.840;2023-08-06T10:11:53;17.60;99.90
18083;DHT22;9168;51.194;6.840;2023-08-06T10:14:24;17.50;99.90
18083;DHT22;9168;51.194;6.840;2023-08-06T10:16:52;17.50;99.90
18083;DHT22;9168;51.194;6.840;2023-08-06T10:19:21;17.40;99.90
18083;DHT22;9168;51.194;6.840;2023-08-06T10:22:09;17.30;99.90
18083;DHT22;9168;51.194;6.840;2023-08-06T10:24:49;17.20;99.90
18083;DHT22;9168;51.194;6.840;2023-08-06T10:27:22;17.10;99.90
18083;DHT22;9168;51.194;6.840;2023-08-06T10:29:49;17.00;99.90
18083;DHT22;9168;51.194;6.840;2023-08-06T10:32:16;16.90;99.90
18083;DHT22;9168;51.194;6.840;2023-08-06T10:34:54;16.80;99.90
18083;DHT22;9168;51.194;6.840;2023-08-06T10:37:22;16.70;99.90
18083;DHT22;9168;51.194;6.840;2023-08-06T10:39:50;16.70;99.90
18083;DHT22;9168;51.194;6.840;2023-08-06T10:42:22;16.70;99.90
18083;DHT22;9168;51.194;6.840;2023-08-06T10:45:13;16.60;99.90
18083;DHT22;9168;51.194;6.840;2023-08-06T10:47:41;16.60;99.90
18083;DHT22;9168;51.194;6.840;2023-08-06T10:50:10;16.50;99.90
18083;DHT22;9168;51.194;6.840;2023-08-06T10:52:37;16.40;99.90
18083;DHT22;9168;51.194;6.840;2023-08-06T10:55:05;16.40;99.90
18083;DHT22;9168;51.194;6.840;2023-08-06T10:57:33;16.40;99.90
18083;DHT22;9168;51.194;6.840;2023-08-06T11:00:00;16.30;99.90
18083;DHT22;9168;51.194;6.840;2023-08-06T11:02:28;16.30;99.90
18083;DHT22;9168;51.194;6.840;2023-08-06T11:05:05;16.30;99.90
18083;DHT22;9168;51.194;6.840;2023-08-06T11:07:32;16.30;99.90
18083;DHT22;9168;51.194;6.840;2023-08-06T11:10:02;16.30;99.90
18083;DHT22;9168;51.194;6.840;2023-08-06T11:12:29;16.20;99.90
18083;DHT22;9168;51.194;6.840;2023-08-06T11:14:57;16.20;99.90
18083;DHT22;9168;51.194;6.840;2023-08-06T11:17:24;16.20;99.90
18083;DHT22;9168;51.194;6.840;2023-08-06T11:19:52;16.20;99.90
18083;DHT22;9168;51.194;6.840;2023-08-06T11:22:20;16.20;99.90
18083;DHT22;9168;51.194;6.840;2023-08-06T11:24:48;16.20;99.90
18083;DHT22;9168;51.194;6.840;2023-08-06T11:27:16;16.20;99.90
18083;DHT22;9168;51.194;6.840;2023-08-06T11:29:43;16.20;99.90
18083;DHT22;9168;51.194;6.840;2023-08-06T11:32:12;16.20;99.90
18083;DHT22;9168;51.194;6.840;2023-08-06T11:34:39;16.10;99.90
18083;DHT22;9168;51.194;6.840;2023-08-06T11:37:07;16.10;99.90
18083;DHT22;9168;51.194;6.840;2023-08-06T11:39:34;16.00;99.90
18083;DHT22;9168;51.194;6.840;2023-08-06T11:42:03;16.00;99.90
18083;DHT22;9168;51.194;6.840;2023-08-06T11:44:30;16.10;99.90
18083;DHT22;9168;51.194;6.840;2023-08-06T11:46:59;15.90;99.90
18083;DHT22;9168;51.194;6.840;2023-08-06T11:49:45;16.00;99.90
18083;DHT22;9168;51.194;6.840;2023-08-06T11:52:17;16.00;99.90
18083;DHT22;9168;51.194;6.840;2023-08-06T11:54:59;15.90;99.90
18083;DHT22;9168;51.194;6.840;2023-08-06T11:57:26;15.90;99.90
18083;DHT22;9168;51.194;6.840;2023-08-06T11:59:57;15.80;99.90
18083;DHT22;9168;51.194;6.840;2023-08-06T12:02:24;15.90;99.90
18083;DHT22;9168;51.194;6.840;2023-08-06T12:05:05;15.90;99.90
18083;DHT22;9168;51.194;6.840;2023-08-06T12:07:37;15.90;99.90
18083;DHT22;9168;51.194;6.840;2023-08-06T12:10:05;15.90;99.90
18083;DHT22;9168;51.194;6.840;2023-08-06T12:12:33;15.90;99.90
18083;DHT22;9168;51.194;6.840;2023-08-06T12:15:00;15.90;99.90
18083;DHT22;9168;51.194;6.840;2023-08-06T12:17:27;15.90;99.90
18083;DHT22;9168;51.194;6.840;2023-08-06T12:19:54;15.90;99.90
18083;DHT22;9168;51.194;6.840;2023-08-06T12:22:23;16.00;99.90
18083;DHT22;9168;51.194;6.840;2023-08-06T12:24:49;16.00;99.90
18083;DHT22;9168;51.194;6.840;2023-08-06T12:27:17;16.00;99.90
18083;DHT22;9168;51.194;6.840;2023-08-06T12:29:46;16.00;99.90
18083;DHT22;9168;51.194;6.840;2023-08-06T12:32:14;16.00;99.90
18083;DHT22;9168;51.194;6.840;2023-08-06T12:34:42;16.00;99.90
18083;DHT22;9168;51.194;6.840;2023-08-06T12:37:09;16.10;99.90
18083;DHT22;9168;51.194;6.840;2023-08-06T12:39:37;16.10;99.90
18083;DHT22;9168;51.194;6.840;2023-08-06T12:42:05;16.00;99.90
18083;DHT22;9168;51.194;6.840;2023-08-06T12:44:32;16.00;99.90
18083;DHT22;9168;51.194;6.840;2023-08-06T12:46:59;16.00;99.90
18083;DHT22;9168;51.194;6.840;2023-08-06T12:49:26;16.10;99.90
18083;DHT22;9168;51.194;6.840;2023-08-06T12:51:54;16.10;99.90
18083;DHT22;9168;51.194;6.840;2023-08-06T12:54:23;16.10;99.90
18083;DHT22;9168;51.194;6.840;2023-08-06T12:56:51;16.10;99.90
18083;DHT22;9168;51.194;6.840;2023-08-06T12:59:18;16.10;99.90
18083;DHT22;9168;51.194;6.840;2023-08-06T13:01:45;16.10;99.90
18083;DHT22;9168;51.194;6.840;2023-08-06T13:04:13;16.10;99.90
18083;DHT22;9168;51.194;6.840;2023-08-06T13:06:40;16.10;99.90
18083;DHT22;9168;51.194;6.840;2023-08-06T13:09:07;16.10;99.90
18083;DHT22;9168;51.194;6.840;2023-08-06T13:11:35;16.10;99.90
18083;DHT22;9168;51.194;6.840;2023-08-06T13:14:08;16.20;99.90
18083;DHT22;9168;51.194;6.840;2023-08-06T13:16:36;16.20;99.90
18083;DHT22;9168;51.194;6.840;2023-08-06T13:19:04;16.20;99.90
18083;DHT22;9168;51.194;6.840;2023-08-06T13:21:33;16.20;99.90
18083;DHT22;9168;51.194;6.840;2023-08-06T13:24:00;16.10;99.90
18083;DHT22;9168;51.194;6.840;2023-08-06T13:26:28;16.20;99.90
18083;DHT22;9168;51.194;6.840;2023-08-06T13:28:57;16.20;99.90
18083;DHT22;9168;51.194;6.840;2023-08-06T13:31:27;16.20;99.90
18083;DHT22;9168;51.194;6.840;2023-08-06T13:33:54;16.20;99.90
18083;DHT22;9168;51.194;6.840;2023-08-06T13:36:23;16.30;99.90
18083;DHT22;9168;51.194;6.840;2023-08-06T13:38:50;16.20;99.90
18083;DHT22;9168;51.194;6.840;2023-08-06T13:41:17;16.20;99.90
18083;DHT22;9168;51.194;6.840;2023-08-06T13:43:44;16.20;99.90
18083;DHT22;9168;51.194;6.840;2023-08-06T13:46:12;16.30;99.90
18083;DHT22;9168;51.194;6.840;2023-08-06T13:48:43;16.20;99.90
18083;DHT22;9168;51.194;6.840;2023-08-06T13:51:11;16.30;99.90
18083;DHT22;9168;51.194;6.840;2023-08-06T13:53:38;16.20;99.90
18083;DHT22;9168;51.194;6.840;2023-08-06T13:56:05;16.10;99.90
18083;DHT22;9168;51.194;6.840;2023-08-06T13:58:32;16.10;99.90
18083;DHT22;9168;51.194;6.840;2023-08-06T14:00:59;16.20;99.90
18083;DHT22;9168;51.194;6.840;2023-08-06T14:03:26;16.20;99.90
18083;DHT22;9168;51.194;6.840;2023-08-06T14:05:54;16.20;99.90
18083;DHT22;9168;51.194;6.840;2023-08-06T14:08:22;16.20;99.90
18083;DHT22;9168;51.194;6.840;2023-08-06T14:10:49;16.20;99.90
18083;DHT22;9168;51.194;6.840;2023-08-06T14:13:16;16.20;99.90
18083;DHT22;9168;51.194;6.840;2023-08-06T14:15:43;16.20;99.90
18083;DHT22;9168;51.194;6.840;2023-08-06T14:18:12;16.30;99.90
18083;DHT22;9168;51.194;6.840;2023-08-06T14:20:39;16.30;99.90
18083;DHT22;9168;51.194;6.840;2023-08-06T14:23:07;16.40;99.90
18083;DHT22;9168;51.194;6.840;2023-08-06T14:25:34;16.40;99.90
18083;DHT22;9168;51.194;6.840;2023-08-06T14:28:01;16.50;99.90
18083;DHT22;9168;51.194;6.840;2023-08-06T14:30:28;16.60;99.90
18083;DHT22;9168;51.194;6.840;2023-08-06T14:32:55;16.70;99.90
18083;DHT22;9168;51.194;6.840;2023-08-06T14:35:22;16.80;99.90
18083;DHT22;9168;51.194;6.840;2023-08-06T14:37:50;16.80;99.90
18083;DHT22;9168;51.194;6.840;2023-08-06T14:40:18;16.80;99.90
18083;DHT22;9168;51.194;6.840;2023-08-06T14:42:45;16.90;99.90
18083;DHT22;9168;51.194;6.840;2023-08-06T14:45:12;16.90;99.90
18083;DHT22;9168;51.194;6.840;2023-08-06T14:47:38;17.00;99.90
18083;DHT22;9168;51.194;6.840;2023-08-06T14:50:06;17.00;99.90
18083;DHT22;9168;51.194;6.840;2023-08-06T14:52:32;17.00;99.90
18083;DHT22;9168;51.194;6.840;2023-08-06T14:55:00;17.00;99.90
18083;DHT22;9168;51.194;6.840;2023-08-06T14:57:30;17.00;99.90
18083;DHT22;9168;51.194;6.840;2023-08-06T14:59:57;17.00;99.90
18083;DHT22;9168;51.194;6.840;2023-08-06T15:02:25;17.00;99.90
18083;DHT22;9168;51.194;6.840;2023-08-06T15:04:53;17.00;99.90
18083;DHT22;9168;51.194;6.840;2023-08-06T15:07:19;17.00;99.90
18083;DHT22;9168;51.194;6.840;2023-08-06T15:09:46;17.10;99.90
18083;DHT22;9168;51.194;6.840;2023-08-06T15:12:13;17.10;99.90
18083;DHT22;9168;51.194;6.840;2023-08-06T15:14:42;17.20;99.90
18083;DHT22;9168;51.194;6.840;2023-08-06T15:17:08;17.10;99.90
18083;DHT22;9168;51.194;6.840;2023-08-06T15:19:35;17.10;99.90
18083;DHT22;9168;51.194;6.840;2023-08-06T15:22:03;17.10;99.90
18083;DHT22;9168;51.194;6.840;2023-08-06T15:24:30;17.10;99.90
18083;DHT22;9168;51.194;6.840;2023-08-06T15:26:57;17.10;99.90
18083;DHT22;9168;51.194;6.840;2023-08-06T15:29:24;17.00;99.90
18083;DHT22;9168;51.194;6.840;2023-08-06T15:31:52;17.00;99.90
18083;DHT22;9168;51.194;6.840;2023-08-06T15:34:19;17.00;99.90
18083;DHT22;9168;51.194;6.840;2023-08-06T15:36:45;17.00;99.90
18083;DHT22;9168;51.194;6.840;2023-08-06T15:39:12;16.90;99.90
18083;DHT22;9168;51.194;6.840;2023-08-06T15:41:39;16.90;99.90
18083;DHT22;9168;51.194;6.840;2023-08-06T15:44:06;16.90;99.90
18083;DHT22;9168;51.194;6.840;2023-08-06T15:46:33;16.90;99.90
18083;DHT22;9168;51.194;6.840;2023-08-06T15:49:02;16.90;99.90